Time;durP1;ratioP1;P1;durP2;ratioP2;P2;SDS_P1;SDS_P2;PMS_P1;PMS_P2;Temp;Humidity;BMP_temperature;BMP_pressure;BME280_temperature;BME280_humidity;BME280_pressure;Samples;Min_cycle;Max_cycle;Signal;HPM_P1;HPM_P2
2023/05/10 00:00:57;;;;;;;8.13;5.38;;;13.40;99.90;;;;;;4249410;28;20036;-84
2023/05/10 00:02:58;;;;;;;8.20;5.53;;;13.40;99.90;;;;;;4249728;28;20096;-84
2023/05/10 00:04:59;;;;;;;8.75;5.85;;;13.40;99.90;;;;;;4221449;28;20528;-84
2023/05/10 00:07:00;;;;;;;8.57;5.88;;;13.30;99.90;;;;;;4232441;28;20498;-84
2023/05/10 00:09:00;;;;;;;6.93;5.10;;;13.30;99.90;;;;;;4233240;28;20536;-84
2023/05/10 00:11:02;;;;;;;8.27;5.70;;;13.30;99.90;;;;;;4235988;28;20040;-84
2023/05/10 00:13:03;;;;;;;8.68;5.53;;;13.20;99.90;;;;;;4243317;27;20269;-84
2023/05/10 00:15:05;;;;;;;8.38;5.35;;;;;;;;;;4248362;28;20043;-84
2023/05/10 00:17:05;;;;;;;8.50;5.93;;;13.20;99.90;;;;;;4260956;27;20038;-84
2023/05/10 00:19:06;;;;;;;7.55;5.68;;;13.20;99.90;;;;;;4266490;27;20104;-84
2023/05/10 00:21:07;;;;;;;9.07;6.13;;;13.10;99.90;;;;;;4265549;27;20045;-84
2023/05/10 00:23:08;;;;;;;8.02;5.93;;;13.10;99.90;;;;;;4266105;27;20050;-84
2023/05/10 00:25:09;;;;;;;7.15;5.03;;;13.10;99.90;;;;;;4265374;27;20034;-84
2023/05/10 00:27:10;;;;;;;7.20;5.40;;;13.10;99.90;;;;;;4266378;27;20046;-83
2023/05/10 00:29:11;;;;;;;7.68;5.38;;;13.10;99.90;;;;;;4265488;27;20069;-84
2023/05/10 00:31:12;;;;;;;6.97;4.55;;;13.10;99.90;;;;;;4264916;27;20038;-83
2023/05/10 00:33:12;;;;;;;7.40;5.07;;;13.00;99.90;;;;;;4264997;27;20513;-83
2023/05/10 00:35:13;;;;;;;7.85;5.57;;;13.00;99.90;;;;;;4265437;27;20054;-83
2023/05/10 00:37:15;;;;;;;7.07;4.85;;;13.00;99.90;;;;;;4265399;27;20049;-83
2023/05/10 00:39:16;;;;;;;6.60;4.70;;;13.00;99.90;;;;;;4252413;27;20039;-83
2023/05/10 00:41:17;;;;;;;7.40;5.00;;;12.90;99.90;;;;;;4248434;27;20046;-84
2023/05/10 00:43:18;;;;;;;7.80;4.53;;;12.90;99.90;;;;;;4248340;28;20050;-83
2023/05/10 00:45:19;;;;;;;6.10;4.18;;;12.90;99.90;;;;;;4249159;27;20118;-84
2023/05/10 00:47:19;;;;;;;5.97;4.35;;;12.90;99.90;;;;;;4248407;28;20043;-83
2023/05/10 00:49:21;;;;;;;8.35;4.80;;;12.90;99.90;;;;;;4248675;28;20043;-84
2023/05/10 00:51:21;;;;;;;6.47;4.05;;;12.90;99.90;;;;;;4248335;28;20108;-83
2023/05/10 00:53:24;;;;;;;6.75;4.63;;;12.90;99.90;;;;;;4248742;28;20052;-83
2023/05/10 00:55:25;;;;;;;6.63;4.72;;;12.90;99.90;;;;;;4230954;28;20121;-84
2023/05/10 00:57:27;;;;;;;6.75;4.30;;;12.90;99.90;;;;;;4247004;27;20087;-83
2023/05/10 00:59:28;;;;;;;8.95;4.68;;;12.90;99.90;;;;;;4248770;27;20600;-83
2023/05/10 01:01:30;;;;;;;6.63;4.40;;;12.90;99.90;;;;;;4248052;28;20039;-83
2023/05/10 01:03:32;;;;;;;6.40;4.30;;;12.90;99.90;;;;;;4261443;27;20038;-83
2023/05/10 01:05:32;;;;;;;5.75;4.05;;;12.90;99.90;;;;;;4265723;27;20518;-83
2023/05/10 01:07:33;;;;;;;6.57;4.35;;;12.90;99.90;;;;;;4267296;27;20092;-83
2023/05/10 01:09:34;;;;;;;5.68;3.60;;;12.80;99.90;;;;;;4269599;27;20095;-83
2023/05/10 01:11:37;;;;;;;5.43;4.00;;;12.80;99.90;;;;;;4249469;27;20039;-83
2023/05/10 01:13:40;;;;;;;4.82;3.35;;;12.80;99.90;;;;;;4268386;27;20050;-83
2023/05/10 01:15:41;;;;;;;4.93;3.28;;;12.80;99.90;;;;;;4262341;27;20050;-83
2023/05/10 01:17:44;;;;;;;5.13;3.53;;;12.30;99.90;;;;;;4251893;27;20475;-83
2023/05/10 01:19:45;;;;;;;5.18;3.65;;;12.80;99.90;;;;;;4251092;27;20039;-83
2023/05/10 01:22:02;;;;;;;6.45;3.35;;;12.70;99.90;;;;;;4250320;27;20190;-83
2023/05/10 01:24:34;;;;;;;5.68;3.55;;;12.70;99.90;;;;;;4251333;27;20131;-84
2023/05/10 01:27:07;;;;;;;5.80;3.78;;;12.70;99.90;;;;;;4236286;27;20051;-83
2023/05/10 01:29:24;;;;;;;5.90;4.00;;;12.70;99.90;;;;;;4269119;27;20082;-83
2023/05/10 01:32:02;;;;;;;6.65;4.15;;;12.60;99.90;;;;;;4268962;27;20038;-83
2023/05/10 01:34:09;;;;;;;5.78;4.10;;;12.60;99.90;;;;;;4268468;27;20050;-83
2023/05/10 01:36:32;;;;;;;5.68;3.63;;;12.60;99.90;;;;;;4267625;27;20130;-83
2023/05/10 01:38:50;;;;;;;6.55;4.18;;;12.60;99.90;;;;;;4267705;27;20043;-83
2023/05/10 01:41:27;;;;;;;8.20;3.78;;;12.60;99.90;;;;;;4257528;27;20047;-83
2023/05/10 01:43:36;;;;;;;5.13;3.50;;;12.60;99.90;;;;;;4250425;27;20046;-83
2023/05/10 01:45:47;;;;;;;5.25;3.67;;;12.50;99.90;;;;;;4234773;27;20044;-83
2023/05/10 01:47:58;;;;;;;5.95;3.97;;;12.60;99.90;;;;;;4233839;28;20372;-84
2023/05/10 01:50:03;;;;;;;7.05;4.30;;;12.50;99.90;;;;;;4234547;28;20074;-84
2023/05/10 01:52:10;;;;;;;8.05;4.10;;;12.60;99.90;;;;;;4234586;28;20059;-83
2023/05/10 01:54:13;;;;;;;7.47;4.65;;;12.60;99.90;;;;;;4233909;28;20055;-84
2023/05/10 01:56:15;;;;;;;7.32;4.75;;;12.50;99.90;;;;;;4216144;28;20056;-84
2023/05/10 01:58:28;;;;;;;10.32;5.53;;;12.50;99.90;;;;;;4233652;28;20487;-84
2023/05/10 02:00:29;;;;;;;7.82;5.10;;;12.60;99.90;;;;;;4234298;28;20483;-83
2023/05/10 02:02:36;;;;;;;6.63;4.15;;;12.60;99.90;;;;;;4239408;27;20046;-84
2023/05/10 02:04:39;;;;;;;8.18;5.13;;;12.60;99.90;;;;;;4233538;27;20047;-84
2023/05/10 02:06:41;;;;;;;6.15;4.20;;;12.60;99.90;;;;;;4234741;28;20054;-83
2023/05/10 02:08:45;;;;;;;6.40;4.45;;;12.50;99.90;;;;;;4233995;28;20040;-83
2023/05/10 02:10:47;;;;;;;6.22;4.38;;;12.50;99.90;;;;;;4233636;28;20052;-84
2023/05/10 02:12:51;;;;;;;7.90;5.10;;;12.60;99.90;;;;;;4234490;28;20043;-85
2023/05/10 02:14:53;;;;;;;9.23;4.65;;;12.50;99.90;;;;;;4233083;28;20043;-84
2023/05/10 02:16:55;;;;;;;6.45;4.65;;;12.60;99.90;;;;;;4234087;28;20119;-84
2023/05/10 02:19:01;;;;;;;12.07;5.75;;;12.50;99.90;;;;;;4248298;27;20051;-83
2023/05/10 02:21:02;;;;;;;6.80;4.55;;;12.50;99.90;;;;;;4250845;27;20043;-83
2023/05/10 02:23:04;;;;;;;7.95;5.18;;;12.50;99.90;;;;;;4250548;27;20061;-84
2023/05/10 02:25:08;;;;;;;5.35;3.80;;;12.50;99.90;;;;;;4251748;27;20134;-84
2023/05/10 02:27:11;;;;;;;6.13;4.47;;;12.50;99.90;;;;;;4249936;27;20118;-84
2023/05/10 02:29:13;;;;;;;6.07;4.38;;;12.50;99.90;;;;;;4232845;28;20043;-84
2023/05/10 02:31:15;;;;;;;6.35;4.15;;;12.40;99.90;;;;;;4232977;28;20039;-84
2023/05/10 02:33:18;;;;;;;8.13;4.40;;;12.40;99.90;;;;;;4238149;27;20066;-84
2023/05/10 02:35:22;;;;;;;6.57;4.38;;;12.40;99.90;;;;;;4232321;28;20089;-84
2023/05/10 02:37:25;;;;;;;7.50;4.72;;;12.40;99.90;;;;;;4232574;28;20079;-84
2023/05/10 02:39:28;;;;;;;6.32;4.13;;;12.40;99.90;;;;;;4232752;28;20445;-83
2023/05/10 02:41:31;;;;;;;6.25;4.30;;;12.40;99.90;;;;;;4233434;28;20043;-83
2023/05/10 02:43:33;;;;;;;6.43;3.97;;;12.40;99.90;;;;;;4233098;28;20039;-84
2023/05/10 02:45:36;;;;;;;6.40;4.35;;;12.40;99.90;;;;;;4232192;28;20624;-85
2023/05/10 02:47:37;;;;;;;6.90;4.18;;;12.40;99.90;;;;;;4233079;28;20048;-85
2023/05/10 02:49:37;;;;;;;6.53;4.35;;;12.40;99.90;;;;;;4238181;27;20483;-84
2023/05/10 02:51:43;;;;;;;7.55;4.25;;;12.30;99.90;;;;;;4233285;28;20043;-84
2023/05/10 02:53:49;;;;;;;9.50;4.80;;;12.30;99.90;;;;;;4233143;28;20584;-84
2023/05/10 02:55:54;;;;;;;8.32;5.20;;;12.30;99.90;;;;;;4233607;28;20051;-84
2023/05/10 02:57:59;;;;;;;9.20;5.35;;;12.30;99.90;;;;;;4233550;28;20555;-84
2023/05/10 03:00:01;;;;;;;7.93;5.10;;;12.30;99.90;;;;;;4233272;28;20082;-84
2023/05/10 03:02:03;;;;;;;10.85;5.90;;;12.30;99.90;;;;;;4249238;27;20546;-85
2023/05/10 03:04:04;;;;;;;10.85;5.93;;;12.30;99.90;;;;;;4250201;27;20039;-84
2023/05/10 03:06:05;;;;;;;13.52;6.35;;;12.30;99.90;;;;;;4244986;27;20230;-85
2023/05/10 03:08:06;;;;;;;11.88;5.95;;;12.30;99.90;;;;;;4242386;27;20045;-84
2023/05/10 03:10:08;;;;;;;9.68;6.22;;;12.30;99.90;;;;;;4250367;27;20035;-84
2023/05/10 03:12:37;;;;;;;10.52;6.22;;;12.30;99.90;;;;;;4251136;27;20043;-85
2023/05/10 03:14:54;;;;;;;11.40;6.15;;;12.30;99.90;;;;;;4240709;27;20044;-84
2023/05/10 03:17:18;;;;;;;12.10;6.03;;;12.30;99.90;;;;;;4232033;28;20048;-84
2023/05/10 03:19:52;;;;;;;12.77;6.60;;;12.30;99.90;;;;;;4204000;28;20056;-84
2023/05/10 03:21:59;;;;;;;13.10;7.07;;;12.30;99.90;;;;;;4232271;28;20043;-84
2023/05/10 03:24:07;;;;;;;10.10;6.32;;;12.30;99.90;;;;;;4237378;27;20051;-84
2023/05/10 03:26:08;;;;;;;10.93;6.53;;;12.30;99.90;;;;;;4232796;28;20408;-84
2023/05/10 03:28:09;;;;;;;12.30;6.40;;;12.30;99.90;;;;;;4232521;28;20046;-84
2023/05/10 03:30:12;;;;;;;12.60;7.00;;;12.30;99.90;;;;;;4231898;28;20055;-84
2023/05/10 03:32:13;;;;;;;11.30;6.75;;;12.30;99.90;;;;;;4219058;28;20057;-84
2023/05/10 03:34:13;;;;;;;14.30;6.78;;;12.30;99.90;;;;;;4249534;27;20043;-84
2023/05/10 03:36:15;;;;;;;12.95;7.03;;;12.30;99.90;;;;;;4249599;27;20051;-84
2023/05/10 03:38:16;;;;;;;12.25;7.30;;;12.30;99.90;;;;;;4230901;28;20052;-84
2023/05/10 03:40:17;;;;;;;11.88;6.65;;;12.30;99.90;;;;;;4248628;27;20041;-84
2023/05/10 03:42:18;;;;;;;14.10;7.43;;;12.30;99.90;;;;;;4248601;27;20047;-84
2023/05/10 03:44:18;;;;;;;15.75;7.28;;;12.30;99.90;;;;;;4249304;27;20033;-84
2023/05/10 03:46:19;;;;;;;13.10;7.57;;;12.30;99.90;;;;;;4230806;28;20475;-84
2023/05/10 03:48:20;;;;;;;13.55;7.43;;;12.30;99.90;;;;;;4249614;27;20055;-84
2023/05/10 03:50:21;;;;;;;13.98;8.20;;;12.30;99.90;;;;;;4248415;27;20035;-84
2023/05/10 03:52:22;;;;;;;14.82;7.80;;;12.30;99.90;;;;;;4249637;27;20088;-84
2023/05/10 03:54:23;;;;;;;13.07;7.72;;;12.30;99.90;;;;;;4249195;28;20047;-84
2023/05/10 03:56:23;;;;;;;10.75;6.20;;;12.30;99.90;;;;;;4247908;28;20403;-84
2023/05/10 03:58:24;;;;;;;11.57;6.93;;;12.30;99.90;;;;;;4237503;27;20095;-84
2023/05/10 04:00:25;;;;;;;12.00;6.28;;;12.30;99.90;;;;;;4248657;28;20051;-83
2023/05/10 04:02:26;;;;;;;11.15;6.35;;;12.30;99.90;;;;;;4249524;28;20479;-83
2023/05/10 04:04:26;;;;;;;9.57;5.32;;;12.30;99.90;;;;;;4230442;28;20051;-84
2023/05/10 04:06:28;;;;;;;12.88;5.45;;;12.30;99.90;;;;;;4249502;28;20502;-84
2023/05/10 04:08:29;;;;;;;11.95;5.30;;;12.30;99.90;;;;;;4248768;28;20115;-84
2023/05/10 04:10:30;;;;;;;8.70;5.80;;;12.30;99.90;;;;;;4230150;28;20040;-84
2023/05/10 04:12:31;;;;;;;12.68;4.97;;;12.30;99.90;;;;;;4249261;28;20049;-83
2023/05/10 04:14:32;;;;;;;7.55;4.43;;;12.20;99.90;;;;;;4248669;28;20490;-84
2023/05/10 04:16:42;;;;;;;7.43;4.63;;;12.20;99.90;;;;;;4239638;27;20055;-84
2023/05/10 04:18:43;;;;;;;10.73;4.72;;;12.20;99.90;;;;;;4231231;28;20051;-83
2023/05/10 04:20:45;;;;;;;7.88;5.00;;;12.20;99.90;;;;;;4213463;28;20126;-84
2023/05/10 04:22:45;;;;;;;7.97;4.53;;;12.20;99.90;;;;;;4231962;28;20399;-83
2023/05/10 04:24:46;;;;;;;6.97;4.53;;;12.20;99.90;;;;;;4231734;28;20039;-84
2023/05/10 04:26:47;;;;;;;7.20;4.30;;;12.20;99.90;;;;;;4213821;28;20598;-84
2023/05/10 04:28:47;;;;;;;7.00;4.35;;;12.10;99.90;;;;;;4231273;28;20052;-83
2023/05/10 04:30:48;;;;;;;6.03;4.10;;;12.20;99.90;;;;;;4231907;28;20123;-84
2023/05/10 04:32:49;;;;;;;6.65;3.97;;;12.20;99.90;;;;;;4235209;28;20491;-84
2023/05/10 04:34:51;;;;;;;8.07;4.68;;;12.20;99.90;;;;;;4231429;28;20152;-84
2023/05/10 04:36:51;;;;;;;8.85;4.50;;;12.20;99.90;;;;;;4213970;28;20044;-84
2023/05/10 04:38:53;;;;;;;7.95;4.18;;;12.20;99.90;;;;;;4231293;28;20473;-83
2023/05/10 04:40:54;;;;;;;7.85;4.82;;;12.20;99.90;;;;;;4231884;28;20039;-84
2023/05/10 04:42:55;;;;;;;7.35;3.90;;;12.20;99.90;;;;;;4233307;28;20095;-83
2023/05/10 04:44:56;;;;;;;6.80;4.07;;;12.20;99.90;;;;;;4238463;28;20050;-83
2023/05/10 04:46:56;;;;;;;5.97;4.10;;;12.10;99.90;;;;;;4215981;28;20085;-83
2023/05/10 04:48:57;;;;;;;6.38;3.65;;;12.10;99.90;;;;;;4240944;27;20035;-83
2023/05/10 04:50:58;;;;;;;7.15;3.63;;;12.10;99.90;;;;;;4250882;27;20122;-84
2023/05/10 04:52:58;;;;;;;5.32;3.78;;;12.10;99.90;;;;;;4251870;27;20039;-84
2023/05/10 04:54:59;;;;;;;5.60;3.72;;;12.10;99.90;;;;;;4251885;27;20104;-84
2023/05/10 04:57:00;;;;;;;7.43;4.05;;;12.20;99.90;;;;;;4250907;27;20043;-84
2023/05/10 04:59:01;;;;;;;6.95;3.90;;;12.20;99.90;;;;;;4233850;28;20043;-84
2023/05/10 05:01:06;;;;;;;5.30;3.78;;;12.20;99.90;;;;;;4247469;27;20127;-84
2023/05/10 05:03:07;;;;;;;5.45;3.47;;;12.20;99.90;;;;;;4234915;28;20043;-83
2023/05/10 05:05:09;;;;;;;5.28;3.50;;;12.20;99.90;;;;;;4216453;28;20135;-84
2023/05/10 05:07:10;;;;;;;5.03;3.53;;;12.20;99.90;;;;;;4216141;28;20055;-84
2023/05/10 05:09:11;;;;;;;4.68;4.10;;;12.20;99.90;;;;;;4235173;28;20047;-84
2023/05/10 05:11:11;;;;;;;6.35;3.97;;;12.10;99.90;;;;;;4234046;28;20043;-84
2023/05/10 05:13:12;;;;;;;4.78;3.70;;;12.20;99.90;;;;;;4235153;28;20053;-84
2023/05/10 05:15:15;;;;;;;5.75;3.92;;;12.10;99.90;;;;;;4234313;28;20051;-85
2023/05/10 05:17:15;;;;;;;6.25;4.00;;;12.20;99.90;;;;;;4235482;28;20051;-84
2023/05/10 05:19:16;;;;;;;5.05;3.45;;;12.20;99.90;;;;;;4248546;27;20050;-84
2023/05/10 05:21:18;;;;;;;4.95;3.80;;;12.20;99.90;;;;;;4251506;27;20114;-84
2023/05/10 05:23:20;;;;;;;5.47;3.72;;;12.20;99.90;;;;;;4251587;27;20047;-84
2023/05/10 05:25:21;;;;;;;3.92;3.08;;;12.20;99.90;;;;;;4251054;27;20039;-84
2023/05/10 05:27:24;;;;;;;3.83;2.92;;;12.20;99.90;;;;;;4251809;27;20045;-85
2023/05/10 05:29:24;;;;;;;6.03;3.50;;;12.20;99.90;;;;;;4251646;27;20076;-84
2023/05/10 05:31:25;;;;;;;3.97;2.63;;;12.20;99.90;;;;;;4252165;27;20486;-85
2023/05/10 05:33:26;;;;;;;4.90;2.60;;;12.20;99.90;;;;;;4251535;27;20039;-84
2023/05/10 05:35:27;;;;;;;3.97;3.17;;;12.20;99.90;;;;;;4241705;27;20038;-84
2023/05/10 05:37:28;;;;;;;4.40;2.92;;;12.20;99.90;;;;;;4247462;27;20047;-83
2023/05/10 05:39:29;;;;;;;4.40;3.10;;;12.20;99.90;;;;;;4251896;27;20039;-84
2023/05/10 05:41:30;;;;;;;4.63;2.95;;;12.20;99.90;;;;;;4216594;28;20092;-83
2023/05/10 05:43:31;;;;;;;3.85;2.60;;;12.20;99.90;;;;;;4251017;27;20035;-83
2023/05/10 05:45:31;;;;;;;3.95;2.67;;;12.20;99.90;;;;;;4250849;27;20329;-84
2023/05/10 05:47:33;;;;;;;4.35;3.15;;;12.30;99.90;;;;;;4250617;27;20047;-84
2023/05/10 05:49:34;;;;;;;4.43;3.03;;;12.30;99.90;;;;;;4251793;27;20482;-84
2023/05/10 05:51:35;;;;;;;3.88;2.72;;;12.30;99.90;;;;;;4251212;27;20039;-83
2023/05/10 05:53:36;;;;;;;4.68;2.78;;;12.20;99.90;;;;;;4231230;28;20122;-83
2023/05/10 05:55:36;;;;;;;3.90;2.92;;;12.30;99.90;;;;;;4251952;27;20050;-83
2023/05/10 05:57:37;;;;;;;4.20;2.70;;;12.40;99.90;;;;;;4250593;27;20035;-83
2023/05/10 05:59:41;;;;;;;5.35;2.60;;;12.40;99.90;;;;;;4252299;27;20067;-84
2023/05/10 06:01:42;;;;;;;3.47;2.53;;;12.40;99.90;;;;;;4251495;27;20043;-83
2023/05/10 06:03:44;;;;;;;3.25;2.30;;;12.40;99.90;;;;;;4250800;27;20038;-84
2023/05/10 06:05:46;;;;;;;2.28;1.70;;;12.40;99.90;;;;;;4239720;27;20038;-83
2023/05/10 06:07:47;;;;;;;2.88;1.50;;;12.40;99.90;;;;;;4232484;28;20040;-83
2023/05/10 06:09:48;;;;;;;1.92;1.30;;;12.40;99.90;;;;;;4251212;27;20046;-83
2023/05/10 06:11:48;;;;;;;2.13;0.77;;;12.40;99.90;;;;;;4250238;27;20035;-84
2023/05/10 06:13:51;;;;;;;0.82;0.52;;;12.40;99.90;;;;;;4233482;28;20050;-84
2023/05/10 06:15:52;;;;;;;0.63;0.47;;;12.40;99.90;;;;;;4250221;27;20058;-84
2023/05/10 06:17:53;;;;;;;0.50;0.43;;;12.40;99.90;;;;;;4251014;27;20372;-83
2023/05/10 06:19:53;;;;;;;0.77;0.60;;;12.40;99.90;;;;;;4251149;27;20046;-83
2023/05/10 06:21:54;;;;;;;0.60;0.60;;;12.40;99.90;;;;;;4250163;27;20039;-83
2023/05/10 06:23:55;;;;;;;1.13;0.85;;;12.40;99.90;;;;;;4232096;28;20047;-83
2023/05/10 06:25:55;;;;;;;1.30;0.90;;;12.40;99.90;;;;;;4250345;27;20154;-84
2023/05/10 06:27:57;;;;;;;3.60;1.67;;;12.40;99.90;;;;;;4231163;28;20031;-84
2023/05/10 06:29:59;;;;;;;1.75;1.38;;;12.40;99.90;;;;;;4248694;27;20467;-82
2023/05/10 06:32:00;;;;;;;2.13;1.50;;;12.40;99.90;;;;;;4248763;27;20039;-82
2023/05/10 06:34:00;;;;;;;2.10;1.52;;;12.30;99.90;;;;;;4247511;27;20075;-82
2023/05/10 06:36:02;;;;;;;3.50;1.38;;;12.30;99.90;;;;;;4249289;27;20059;-83
2023/05/10 06:38:03;;;;;;;1.95;1.35;;;12.30;99.90;;;;;;4231171;28;20047;-82
2023/05/10 06:40:05;;;;;;;2.45;1.80;;;12.30;99.90;;;;;;4236526;27;20043;-82
2023/05/10 06:42:05;;;;;;;3.65;2.33;;;12.30;99.90;;;;;;4215282;28;20066;-83
2023/05/10 06:44:06;;;;;;;3.22;2.63;;;12.30;99.90;;;;;;4232412;28;20062;-82
2023/05/10 06:46:07;;;;;;;4.13;3.00;;;12.30;99.90;;;;;;4233976;28;20039;-84
2023/05/10 06:48:07;;;;;;;5.10;3.25;;;12.30;99.90;;;;;;4233656;28;20407;-83
2023/05/10 06:50:09;;;;;;;4.47;3.42;;;12.20;99.90;;;;;;4216700;28;20048;-83
2023/05/10 06:52:10;;;;;;;6.18;4.38;;;12.30;99.90;;;;;;4234199;28;20039;-83
2023/05/10 06:54:10;;;;;;;7.15;4.55;;;12.30;99.90;;;;;;4233632;28;20099;-84
2023/05/10 06:56:12;;;;;;;8.65;4.82;;;12.20;99.90;;;;;;4220906;28;20046;-83
2023/05/10 06:58:12;;;;;;;6.85;5.25;;;12.20;99.90;;;;;;4250187;27;20047;-83
2023/05/10 07:00:15;;;;;;;9.57;5.55;;;12.20;99.90;;;;;;4250747;27;20524;-84
2023/05/10 07:02:16;;;;;;;11.40;6.30;;;12.30;99.90;;;;;;4235715;27;20039;-84
2023/05/10 07:04:17;;;;;;;10.13;6.40;;;12.30;99.90;;;;;;4233388;28;20055;-83
2023/05/10 07:06:18;;;;;;;9.98;6.53;;;12.30;99.90;;;;;;4232825;28;20035;-83
2023/05/10 07:08:19;;;;;;;10.52;6.20;;;12.30;99.90;;;;;;4233100;28;20040;-83
2023/05/10 07:10:20;;;;;;;11.57;7.35;;;12.30;99.90;;;;;;4233435;28;20040;-83
2023/05/10 07:12:22;;;;;;;11.00;6.22;;;12.30;99.90;;;;;;4235303;27;20122;-83
2023/05/10 07:14:24;;;;;;;10.85;5.60;;;12.30;99.90;;;;;;4252354;27;20063;-84
2023/05/10 07:16:25;;;;;;;8.18;5.47;;;12.20;99.90;;;;;;4251347;27;20039;-84
2023/05/10 07:18:26;;;;;;;10.48;6.57;;;12.20;99.90;;;;;;4252973;27;20412;-84
2023/05/10 07:20:27;;;;;;;8.93;5.25;;;12.20;99.90;;;;;;4233840;28;20054;-84
2023/05/10 07:22:27;;;;;;;9.25;5.78;;;12.30;99.90;;;;;;4251733;27;20051;-84
2023/05/10 07:24:28;;;;;;;8.90;4.88;;;12.30;99.90;;;;;;4252901;27;20467;-84
2023/05/10 07:26:29;;;;;;;6.88;4.60;;;12.30;99.90;;;;;;4250605;27;20467;-84
2023/05/10 07:28:30;;;;;;;7.15;4.07;;;12.30;99.90;;;;;;4252657;27;20087;-84
2023/05/10 07:30:30;;;;;;;6.32;4.03;;;12.20;99.90;;;;;;4215937;28;20101;-84
2023/05/10 07:32:32;;;;;;;6.45;4.13;;;12.30;99.90;;;;;;4253187;27;20407;-83
2023/05/10 07:34:33;;;;;;;5.55;3.90;;;12.40;99.90;;;;;;4233492;28;20514;-83
2023/05/10 07:36:35;;;;;;;4.90;2.90;;;12.40;99.90;;;;;;4234827;28;20047;-83
2023/05/10 07:38:36;;;;;;;3.72;2.70;;;12.40;99.90;;;;;;4252278;27;20046;-83
2023/05/10 07:40:39;;;;;;;3.38;2.38;;;12.40;99.90;;;;;;4251955;27;20077;-83
2023/05/10 07:42:40;;;;;;;2.88;2.17;;;12.50;99.90;;;;;;4251844;27;20027;-84
2023/05/10 07:44:40;;;;;;;5.63;2.72;;;12.50;99.90;;;;;;4253093;27;20058;-84
2023/05/10 07:46:41;;;;;;;3.15;2.00;;;12.60;99.90;;;;;;4252583;27;20049;-85
2023/05/10 07:48:45;;;;;;;3.42;2.10;;;12.60;99.90;;;;;;4252846;27;20085;-85
2023/05/10 07:50:45;;;;;;;3.22;1.88;;;12.60;99.90;;;;;;4252534;27;20042;-85
2023/05/10 07:52:48;;;;;;;2.75;2.00;;;12.70;99.90;;;;;;4252321;27;20412;-85
2023/05/10 07:54:50;;;;;;;2.65;2.00;;;12.70;99.90;;;;;;4252067;27;20154;-84
2023/05/10 07:56:52;;;;;;;2.40;2.00;;;12.70;99.90;;;;;;4253046;28;20076;-85
2023/05/10 07:59:01;;;;;;;2.35;1.80;;;12.80;99.90;;;;;;4255285;28;20100;-85
2023/05/10 08:01:14;;;;;;;2.50;1.85;;;12.80;99.90;;;;;;4252368;28;20499;-85
2023/05/10 08:03:15;;;;;;;3.05;1.90;;;12.80;99.90;;;;;;4237735;28;20046;-85
2023/05/10 08:05:16;;;;;;;2.20;1.80;;;12.80;99.90;;;;;;4249354;28;20043;-85
2023/05/10 08:07:16;;;;;;;3.45;2.13;;;12.80;99.90;;;;;;4253088;28;20394;-86
2023/05/10 08:09:23;;;;;;;2.83;2.00;;;12.80;99.90;;;;;;4249922;28;20047;-85
2023/05/10 08:11:27;;;;;;;2.53;2.25;;;12.90;99.90;;;;;;4251919;28;20491;-85
2023/05/10 08:13:28;;;;;;;3.20;2.35;;;12.90;99.90;;;;;;4252037;28;20040;-84
2023/05/10 08:15:30;;;;;;;3.83;2.00;;;12.90;99.90;;;;;;4250248;28;20036;-85
2023/05/10 08:17:30;;;;;;;4.05;2.78;;;12.90;99.90;;;;;;4252340;27;20122;-85
2023/05/10 08:19:32;;;;;;;2.58;2.20;;;12.90;99.90;;;;;;4254094;27;20243;-85
2023/05/10 08:21:32;;;;;;;3.50;2.40;;;12.90;99.90;;;;;;4255118;27;20051;-85
2023/05/10 08:23:33;;;;;;;2.25;1.80;;;12.90;99.90;;;;;;4238696;27;20127;-84
2023/05/10 08:25:34;;;;;;;2.80;2.00;;;12.90;99.90;;;;;;4238618;28;20123;-84
2023/05/10 08:27:34;;;;;;;3.95;2.20;;;13.00;99.90;;;;;;4238420;28;20039;-85
2023/05/10 08:29:35;;;;;;;3.10;2.67;;;13.00;99.90;;;;;;4237243;28;20454;-84
2023/05/10 08:31:37;;;;;;;3.13;2.60;;;13.00;99.90;;;;;;4238803;28;20027;-84
2023/05/10 08:33:38;;;;;;;2.33;2.05;;;13.00;99.90;;;;;;4238869;28;20118;-85
2023/05/10 08:35:38;;;;;;;7.35;2.38;;;12.90;99.90;;;;;;4239011;28;20036;-85
2023/05/10 08:37:39;;;;;;;2.85;2.13;;;12.90;99.90;;;;;;4237991;28;20040;-84
2023/05/10 08:39:41;;;;;;;2.65;2.28;;;13.00;99.90;;;;;;4252118;27;20054;-85
2023/05/10 08:41:46;;;;;;;3.90;2.20;;;13.10;99.90;;;;;;4254520;27;20047;-85
2023/05/10 08:43:47;;;;;;;3.70;2.00;;;13.10;99.90;;;;;;4254499;27;20495;-87
2023/05/10 08:45:50;;;;;;;4.38;2.13;;;13.10;99.90;;;;;;4238371;27;20050;-86
2023/05/10 08:47:52;;;;;;;2.72;1.90;;;13.10;99.90;;;;;;4244392;28;20040;-86
2023/05/10 08:49:54;;;;;;;3.85;2.22;;;13.10;99.90;;;;;;4250109;28;20040;-86
2023/05/10 08:51:59;;;;;;;2.47;1.70;;;13.10;99.90;;;;;;4230546;28;20148;-86
2023/05/10 08:54:03;;;;;;;2.10;1.55;;;13.10;99.90;;;;;;4231431;28;20087;-86
2023/05/10 08:56:04;;;;;;;2.10;1.30;;;13.10;99.90;;;;;;4249655;28;20048;-85
2023/05/10 08:58:07;;;;;;;2.28;1.33;;;13.10;99.90;;;;;;4247556;28;20064;-85
2023/05/10 09:00:09;;;;;;;4.50;1.00;;;13.10;99.90;;;;;;4240061;28;20081;-86
2023/05/10 09:02:12;;;;;;;3.53;1.20;;;13.10;99.90;;;;;;4237658;28;20127;-85
2023/05/10 09:04:13;;;;;;;3.20;0.95;;;13.10;99.90;;;;;;4237690;28;20116;-86
2023/05/10 09:06:15;;;;;;;1.80;1.27;;;13.10;99.90;;;;;;4238943;28;20118;-85
2023/05/10 09:08:17;;;;;;;1.73;1.45;;;13.10;99.90;;;;;;4252153;27;20110;-86
2023/05/10 09:10:20;;;;;;;2.53;1.60;;;13.10;99.90;;;;;;4255793;27;20026;-85
2023/05/10 09:12:20;;;;;;;3.85;1.88;;;13.10;99.90;;;;;;4255062;27;20407;-85
2023/05/10 09:14:23;;;;;;;4.72;2.22;;;13.10;99.90;;;;;;4253918;27;20047;-85
2023/05/10 09:16:24;;;;;;;4.15;2.15;;;13.20;99.90;;;;;;4254274;27;20039;-84
2023/05/10 09:18:25;;;;;;;5.00;2.33;;;13.10;99.90;;;;;;4252953;27;20050;-84
2023/05/10 09:20:26;;;;;;;4.00;2.22;;;13.20;99.90;;;;;;4254188;27;20039;-84
2023/05/10 09:22:27;;;;;;;6.07;2.38;;;13.20;99.90;;;;;;4252895;27;20055;-84
2023/05/10 09:24:29;;;;;;;4.13;2.33;;;13.20;99.90;;;;;;4254454;27;20047;-84
2023/05/10 09:26:30;;;;;;;3.92;2.55;;;13.20;99.90;;;;;;4251776;27;20086;-84
2023/05/10 09:28:50;;;;;;;5.68;2.28;;;13.30;99.90;;;;;;4253919;27;20039;-84
2023/05/10 09:30:55;;;;;;;6.28;2.70;;;13.30;99.90;;;;;;4253569;27;20035;-84
2023/05/10 09:32:57;;;;;;;5.65;2.95;;;13.40;99.90;;;;;;4253360;27;20534;-83
2023/05/10 09:35:09;;;;;;;6.82;3.30;;;13.50;99.90;;;;;;4253428;27;20039;-83
2023/05/10 09:37:10;;;;;;;4.70;2.83;;;13.50;99.90;;;;;;4252419;27;20047;-83
2023/05/10 09:39:11;;;;;;;4.47;3.10;;;13.60;99.90;;;;;;4252255;27;20046;-82
2023/05/10 09:41:18;;;;;;;4.40;3.20;;;;;;;;;;4253139;27;20042;-82
2023/05/10 09:43:20;;;;;;;4.20;2.90;;;;;;;;;;4242073;27;20114;-83
2023/05/10 09:45:23;;;;;;;3.63;2.50;;;;;;;;;;4235544;28;20123;-85
2023/05/10 09:47:26;;;;;;;3.47;2.83;;;;;;;;;;4236557;28;20050;-85
2023/05/10 09:49:27;;;;;;;4.68;2.50;;;;;;;;;;4236820;27;20113;-85
2023/05/10 09:51:29;;;;;;;3.60;2.30;;;;;;;;;;4217519;28;20052;-84
2023/05/10 09:53:31;;;;;;;4.15;3.15;;;;;;;;;;4235892;28;20035;-84
2023/05/10 09:55:41;;;;;;;3.20;2.30;;;;;;;;;;4236812;28;20066;-84
2023/05/10 09:57:42;;;;;;;5.32;2.58;;;;;;;;;;4235800;28;20044;-85
2023/05/10 09:59:44;;;;;;;2.58;1.85;;;;;;;;;;4228928;28;20134;-83
2023/05/10 10:01:51;;;;;;;2.17;1.20;;;;;;;;;;4252268;27;20035;-84
2023/05/10 10:03:52;;;;;;;2.22;1.30;;;;;;;;;;4233743;28;20074;-84
2023/05/10 10:05:55;;;;;;;1.90;1.48;;;;;;;;;;4253010;27;20035;-84
2023/05/10 10:07:58;;;;;;;1.95;1.55;;;;;;;;;;4252667;27;20510;-84
2023/05/10 10:10:00;;;;;;;2.30;1.45;;;;;;;;;;4252241;27;20055;-84
2023/05/10 10:12:03;;;;;;;1.75;1.38;;;;;;;;;;4252078;27;20539;-84
2023/05/10 10:14:04;;;;;;;2.65;1.20;;;;;;;;;;4247047;27;20042;-84
2023/05/10 10:16:05;;;;;;;1.60;1.15;;;;;;;;;;4235325;28;20051;-83
2023/05/10 10:18:07;;;;;;;1.65;1.13;;;;;;;;;;4239098;27;20039;-84
2023/05/10 10:20:08;;;;;;;2.90;1.30;;;;;;;;;;4252547;27;20120;-85
2023/05/10 10:22:12;;;;;;;1.50;1.20;;;;;;;;;;4252771;27;20043;-85
2023/05/10 10:24:13;;;;;;;2.45;1.10;;;;;;;;;;4252015;27;20051;-84
2023/05/10 10:26:17;;;;;;;2.25;1.00;;;;;;;;;;4253920;27;20108;-84
2023/05/10 10:28:24;;;;;;;2.30;1.27;;;;;;;;;;4253526;27;20046;-84
2023/05/10 10:30:28;;;;;;;2.67;1.20;;;;;;;;;;4253962;27;20431;-83
2023/05/10 10:32:29;;;;;;;2.33;1.20;;;;;;;;;;4252836;27;20111;-83
2023/05/10 10:34:32;;;;;;;1.70;1.20;;;;;;;;;;4234265;28;20110;-84
2023/05/10 10:36:53;;;;;;;3.28;1.27;;;;;;;;;;4252880;27;20543;-84
2023/05/10 10:38:59;;;;;;;1.30;0.80;;;;;;;;;;4252171;27;20035;-84
2023/05/10 10:41:03;;;;;;;2.58;1.33;;;;;;;;;;4251977;27;20058;-84
2023/05/10 10:43:24;;;;;;;2.05;1.45;;;;;;;;;;4233819;28;20122;-83
2023/05/10 10:45:27;;;;;;;1.80;1.40;;;;;;;;;;4233015;28;20043;-83
2023/05/10 10:47:29;;;;;;;3.70;1.67;;;;;;;;;;4232910;28;20044;-83
2023/05/10 10:49:34;;;;;;;1.77;1.30;;;;;;;;;;4252144;27;20114;-83